Terminal Aerodrome Forecast
Issued by NWS

Home | Current Version | Previous Version | Text Only | Print | Product List | Glossary Off
Versions: 1 2 3 4 5 6 7 8 9 10 11 12 13 14 15

000
FTUS43 KTOP 221725
TAFMHK
TAF
KMHK 221725Z 2218/2318 24008KT P6SM VCSH BKN070
     FM222000 23009KT P6SM -SHRA VCTS BKN070CB
      TEMPO 2220/2221 3SM RA BKN030
     FM222300 22006KT P6SM BKN100
     FM230600 29004KT P6SM -SHRA VCTS OVC030CB
     FM230900 34008KT P6SM BKN030=

USA.gov is the U.S. government's official web portal to all federal, state and local government web resources and services.